sensor_id;sensor_type;location;lat;lon;timestamp;P1;durP1;ratioP1;P2;durP2;ratioP2
77384;SDS011;66443;49.122;8.346;2023-10-08T00:00:24;3.80;;;3.13;;
77384;SDS011;66443;49.122;8.346;2023-10-08T00:03:12;3.57;;;3.23;;
77384;SDS011;66443;49.122;8.346;2023-10-08T00:05:38;3.97;;;3.13;;
77384;SDS011;66443;49.122;8.346;2023-10-08T00:08:04;4.77;;;3.43;;
77384;SDS011;66443;49.122;8.346;2023-10-08T00:10:36;4.90;;;3.10;;
77384;SDS011;66443;49.122;8.346;2023-10-08T00:13:04;4.93;;;3.60;;
77384;SDS011;66443;49.122;8.346;2023-10-08T00:15:32;8.53;;;3.73;;
77384;SDS011;66443;49.122;8.346;2023-10-08T00:17:57;4.73;;;3.50;;
77384;SDS011;66443;49.122;8.346;2023-10-08T00:20:26;5.03;;;3.77;;
77384;SDS011;66443;49.122;8.346;2023-10-08T00:23:00;5.43;;;3.27;;
77384;SDS011;66443;49.122;8.346;2023-10-08T00:25:27;4.50;;;3.90;;
77384;SDS011;66443;49.122;8.346;2023-10-08T00:27:52;7.03;;;3.83;;
77384;SDS011;66443;49.122;8.346;2023-10-08T00:30:17;4.30;;;3.70;;
77384;SDS011;66443;49.122;8.346;2023-10-08T00:32:43;4.60;;;3.13;;
77384;SDS011;66443;49.122;8.346;2023-10-08T00:35:09;8.23;;;3.53;;
77384;SDS011;66443;49.122;8.346;2023-10-08T00:37:38;4.77;;;3.43;;
77384;SDS011;66443;49.122;8.346;2023-10-08T00:40:05;4.10;;;3.10;;
77384;SDS011;66443;49.122;8.346;2023-10-08T00:42:36;4.13;;;3.27;;
77384;SDS011;66443;49.122;8.346;2023-10-08T00:45:01;4.87;;;3.90;;
77384;SDS011;66443;49.122;8.346;2023-10-08T00:47:29;4.93;;;3.83;;
77384;SDS011;66443;49.122;8.346;2023-10-08T00:49:59;4.10;;;3.23;;
77384;SDS011;66443;49.122;8.346;2023-10-08T00:52:31;5.10;;;3.50;;
77384;SDS011;66443;49.122;8.346;2023-10-08T00:55:05;5.10;;;3.57;;
77384;SDS011;66443;49.122;8.346;2023-10-08T00:57:30;4.73;;;3.80;;
77384;SDS011;66443;49.122;8.346;2023-10-08T00:59:59;10.53;;;3.77;;
77384;SDS011;66443;49.122;8.346;2023-10-08T01:02:25;4.00;;;3.50;;
77384;SDS011;66443;49.122;8.346;2023-10-08T01:04:51;8.93;;;3.63;;
77384;SDS011;66443;49.122;8.346;2023-10-08T01:07:17;5.33;;;3.30;;
77384;SDS011;66443;49.122;8.346;2023-10-08T01:09:43;4.07;;;3.47;;
77384;SDS011;66443;49.122;8.346;2023-10-08T01:12:15;6.03;;;3.43;;
77384;SDS011;66443;49.122;8.346;2023-10-08T01:14:53;6.73;;;3.80;;
77384;SDS011;66443;49.122;8.346;2023-10-08T01:17:19;4.87;;;3.67;;
77384;SDS011;66443;49.122;8.346;2023-10-08T01:19:47;6.90;;;3.77;;
77384;SDS011;66443;49.122;8.346;2023-10-08T01:22:19;4.57;;;3.43;;
77384;SDS011;66443;49.122;8.346;2023-10-08T01:24:47;6.53;;;4.10;;
77384;SDS011;66443;49.122;8.346;2023-10-08T01:27:16;6.67;;;4.00;;
77384;SDS011;66443;49.122;8.346;2023-10-08T01:29:47;6.23;;;3.93;;
77384;SDS011;66443;49.122;8.346;2023-10-08T01:32:12;5.17;;;3.67;;
77384;SDS011;66443;49.122;8.346;2023-10-08T01:34:41;5.53;;;4.10;;
77384;SDS011;66443;49.122;8.346;2023-10-08T01:37:10;5.03;;;4.17;;
77384;SDS011;66443;49.122;8.346;2023-10-08T01:39:37;4.53;;;3.77;;
77384;SDS011;66443;49.122;8.346;2023-10-08T01:42:07;5.10;;;4.23;;
77384;SDS011;66443;49.122;8.346;2023-10-08T01:44:40;19.57;;;5.00;;
77384;SDS011;66443;49.122;8.346;2023-10-08T01:47:05;5.93;;;4.10;;
77384;SDS011;66443;49.122;8.346;2023-10-08T01:49:31;5.73;;;4.13;;
77384;SDS011;66443;49.122;8.346;2023-10-08T01:51:58;5.80;;;3.90;;
77384;SDS011;66443;49.122;8.346;2023-10-08T01:54:23;4.03;;;3.63;;
77384;SDS011;66443;49.122;8.346;2023-10-08T01:56:51;7.00;;;4.27;;
77384;SDS011;66443;49.122;8.346;2023-10-08T01:59:16;6.20;;;4.00;;
77384;SDS011;66443;49.122;8.346;2023-10-08T02:01:42;5.33;;;4.20;;
77384;SDS011;66443;49.122;8.346;2023-10-08T02:04:07;4.83;;;4.07;;
77384;SDS011;66443;49.122;8.346;2023-10-08T02:06:33;7.47;;;5.50;;
77384;SDS011;66443;49.122;8.346;2023-10-08T02:08:59;5.63;;;4.23;;
77384;SDS011;66443;49.122;8.346;2023-10-08T02:11:24;5.57;;;4.00;;
77384;SDS011;66443;49.122;8.346;2023-10-08T02:13:52;6.03;;;4.20;;
77384;SDS011;66443;49.122;8.346;2023-10-08T02:16:18;6.07;;;4.10;;
77384;SDS011;66443;49.122;8.346;2023-10-08T02:18:43;6.60;;;4.00;;
77384;SDS011;66443;49.122;8.346;2023-10-08T02:21:09;5.90;;;4.13;;
77384;SDS011;66443;49.122;8.346;2023-10-08T02:23:35;4.37;;;3.90;;
77384;SDS011;66443;49.122;8.346;2023-10-08T02:26:01;6.50;;;4.17;;
77384;SDS011;66443;49.122;8.346;2023-10-08T02:28:26;5.30;;;4.13;;
77384;SDS011;66443;49.122;8.346;2023-10-08T02:30:51;8.20;;;4.53;;
77384;SDS011;66443;49.122;8.346;2023-10-08T02:33:17;6.03;;;4.23;;
77384;SDS011;66443;49.122;8.346;2023-10-08T02:35:43;5.90;;;4.03;;
77384;SDS011;66443;49.122;8.346;2023-10-08T02:38:11;5.73;;;3.93;;
77384;SDS011;66443;49.122;8.346;2023-10-08T02:40:43;5.97;;;4.63;;
77384;SDS011;66443;49.122;8.346;2023-10-08T02:43:11;8.13;;;4.60;;
77384;SDS011;66443;49.122;8.346;2023-10-08T02:45:39;7.60;;;4.20;;
77384;SDS011;66443;49.122;8.346;2023-10-08T02:48:06;5.40;;;4.07;;
77384;SDS011;66443;49.122;8.346;2023-10-08T02:50:37;5.90;;;3.63;;
77384;SDS011;66443;49.122;8.346;2023-10-08T02:53:02;4.63;;;4.13;;
77384;SDS011;66443;49.122;8.346;2023-10-08T02:55:36;5.40;;;4.07;;
77384;SDS011;66443;49.122;8.346;2023-10-08T02:58:01;4.73;;;4.00;;
77384;SDS011;66443;49.122;8.346;2023-10-08T03:00:30;5.07;;;4.10;;
77384;SDS011;66443;49.122;8.346;2023-10-08T03:02:58;5.60;;;3.50;;
77384;SDS011;66443;49.122;8.346;2023-10-08T03:05:26;4.77;;;3.90;;
77384;SDS011;66443;49.122;8.346;2023-10-08T03:08:00;4.53;;;3.80;;
77384;SDS011;66443;49.122;8.346;2023-10-08T03:10:26;6.83;;;3.87;;
77384;SDS011;66443;49.122;8.346;2023-10-08T03:12:58;8.60;;;4.27;;
77384;SDS011;66443;49.122;8.346;2023-10-08T03:15:29;5.27;;;4.30;;
77384;SDS011;66443;49.122;8.346;2023-10-08T03:17:56;5.43;;;4.07;;
77384;SDS011;66443;49.122;8.346;2023-10-08T03:20:22;7.40;;;4.67;;
77384;SDS011;66443;49.122;8.346;2023-10-08T03:23:14;5.13;;;4.53;;
77384;SDS011;66443;49.122;8.346;2023-10-08T03:25:52;5.20;;;4.23;;
77384;SDS011;66443;49.122;8.346;2023-10-08T03:28:25;5.37;;;4.57;;
77384;SDS011;66443;49.122;8.346;2023-10-08T03:30:52;6.07;;;4.23;;
77384;SDS011;66443;49.122;8.346;2023-10-08T03:33:28;7.17;;;5.07;;
77384;SDS011;66443;49.122;8.346;2023-10-08T03:35:53;4.83;;;4.07;;
77384;SDS011;66443;49.122;8.346;2023-10-08T03:38:20;6.70;;;4.40;;
77384;SDS011;66443;49.122;8.346;2023-10-08T03:40:53;4.83;;;4.33;;
77384;SDS011;66443;49.122;8.346;2023-10-08T03:43:22;4.83;;;4.10;;
77384;SDS011;66443;49.122;8.346;2023-10-08T03:45:59;9.80;;;4.20;;
77384;SDS011;66443;49.122;8.346;2023-10-08T03:48:30;5.50;;;4.40;;
77384;SDS011;66443;49.122;8.346;2023-10-08T03:51:01;6.70;;;4.47;;
77384;SDS011;66443;49.122;8.346;2023-10-08T03:53:31;7.00;;;4.70;;
77384;SDS011;66443;49.122;8.346;2023-10-08T03:55:59;7.83;;;4.77;;
77384;SDS011;66443;49.122;8.346;2023-10-08T03:58:30;5.27;;;4.50;;
77384;SDS011;66443;49.122;8.346;2023-10-08T04:00:59;4.57;;;3.97;;
77384;SDS011;66443;49.122;8.346;2023-10-08T04:03:37;5.37;;;4.10;;
77384;SDS011;66443;49.122;8.346;2023-10-08T04:06:19;5.80;;;4.67;;
77384;SDS011;66443;49.122;8.346;2023-10-08T04:08:47;6.47;;;5.23;;
77384;SDS011;66443;49.122;8.346;2023-10-08T04:11:36;6.67;;;4.43;;
77384;SDS011;66443;49.122;8.346;2023-10-08T04:14:13;5.53;;;4.00;;
77384;SDS011;66443;49.122;8.346;2023-10-08T04:16:41;5.40;;;4.17;;
77384;SDS011;66443;49.122;8.346;2023-10-08T04:19:06;6.57;;;4.27;;
77384;SDS011;66443;49.122;8.346;2023-10-08T04:21:32;4.87;;;3.83;;
77384;SDS011;66443;49.122;8.346;2023-10-08T04:23:59;9.83;;;4.50;;
77384;SDS011;66443;49.122;8.346;2023-10-08T04:26:33;5.70;;;4.00;;
77384;SDS011;66443;49.122;8.346;2023-10-08T04:28:59;5.33;;;4.03;;
77384;SDS011;66443;49.122;8.346;2023-10-08T04:31:30;6.80;;;4.90;;
77384;SDS011;66443;49.122;8.346;2023-10-08T04:34:02;7.10;;;4.33;;
77384;SDS011;66443;49.122;8.346;2023-10-08T04:36:34;8.40;;;4.67;;
77384;SDS011;66443;49.122;8.346;2023-10-08T04:39:03;10.53;;;4.23;;
77384;SDS011;66443;49.122;8.346;2023-10-08T04:41:38;6.40;;;5.00;;
77384;SDS011;66443;49.122;8.346;2023-10-08T04:44:07;5.10;;;3.97;;
77384;SDS011;66443;49.122;8.346;2023-10-08T04:46:39;5.47;;;4.10;;
77384;SDS011;66443;49.122;8.346;2023-10-08T04:49:04;4.90;;;3.80;;
77384;SDS011;66443;49.122;8.346;2023-10-08T04:51:35;6.07;;;3.87;;
77384;SDS011;66443;49.122;8.346;2023-10-08T04:54:08;6.13;;;3.83;;
77384;SDS011;66443;49.122;8.346;2023-10-08T04:56:34;7.50;;;4.00;;
77384;SDS011;66443;49.122;8.346;2023-10-08T04:58:59;6.10;;;4.28;;
77384;SDS011;66443;49.122;8.346;2023-10-08T05:01:24;6.97;;;4.43;;
77384;SDS011;66443;49.122;8.346;2023-10-08T05:04:02;5.37;;;4.20;;
77384;SDS011;66443;49.122;8.346;2023-10-08T05:06:28;5.97;;;4.10;;
77384;SDS011;66443;49.122;8.346;2023-10-08T05:09:00;6.27;;;4.97;;
77384;SDS011;66443;49.122;8.346;2023-10-08T05:11:35;4.67;;;4.23;;
77384;SDS011;66443;49.122;8.346;2023-10-08T05:14:16;6.30;;;4.47;;
77384;SDS011;66443;49.122;8.346;2023-10-08T05:19:37;6.13;;;4.17;;
77384;SDS011;66443;49.122;8.346;2023-10-08T05:22:13;5.57;;;4.27;;
77384;SDS011;66443;49.122;8.346;2023-10-08T05:24:54;6.30;;;4.30;;
77384;SDS011;66443;49.122;8.346;2023-10-08T05:27:36;7.33;;;4.40;;
77384;SDS011;66443;49.122;8.346;2023-10-08T05:30:21;6.13;;;4.43;;
77384;SDS011;66443;49.122;8.346;2023-10-08T05:33:02;8.47;;;5.00;;
77384;SDS011;66443;49.122;8.346;2023-10-08T05:35:49;4.93;;;4.23;;
77384;SDS011;66443;49.122;8.346;2023-10-08T05:38:15;5.37;;;4.23;;
77384;SDS011;66443;49.122;8.346;2023-10-08T05:40:56;8.60;;;4.80;;
77384;SDS011;66443;49.122;8.346;2023-10-08T05:43:22;6.30;;;4.60;;
77384;SDS011;66443;49.122;8.346;2023-10-08T05:46:02;8.33;;;5.07;;
77384;SDS011;66443;49.122;8.346;2023-10-08T05:48:46;13.00;;;5.23;;
77384;SDS011;66443;49.122;8.346;2023-10-08T05:51:26;4.87;;;4.13;;
77384;SDS011;66443;49.122;8.346;2023-10-08T05:54:09;8.10;;;4.30;;
77384;SDS011;66443;49.122;8.346;2023-10-08T05:56:49;7.93;;;3.97;;
77384;SDS011;66443;49.122;8.346;2023-10-08T05:59:32;6.30;;;4.07;;
77384;SDS011;66443;49.122;8.346;2023-10-08T06:02:16;4.70;;;4.20;;
77384;SDS011;66443;49.122;8.346;2023-10-08T06:05:13;5.53;;;4.03;;
77384;SDS011;66443;49.122;8.346;2023-10-08T06:07:38;5.27;;;3.97;;
77384;SDS011;66443;49.122;8.346;2023-10-08T06:10:23;7.77;;;4.23;;
77384;SDS011;66443;49.122;8.346;2023-10-08T06:12:54;5.07;;;3.57;;
77384;SDS011;66443;49.122;8.346;2023-10-08T06:15:27;6.40;;;3.87;;
77384;SDS011;66443;49.122;8.346;2023-10-08T06:18:09;4.83;;;4.00;;
77384;SDS011;66443;49.122;8.346;2023-10-08T06:20:35;5.53;;;4.33;;
77384;SDS011;66443;49.122;8.346;2023-10-08T06:23:01;5.77;;;4.10;;
77384;SDS011;66443;49.122;8.346;2023-10-08T06:25:28;7.37;;;4.00;;
77384;SDS011;66443;49.122;8.346;2023-10-08T06:27:55;5.27;;;3.90;;
77384;SDS011;66443;49.122;8.346;2023-10-08T06:30:20;6.70;;;4.30;;
77384;SDS011;66443;49.122;8.346;2023-10-08T06:32:46;4.37;;;3.97;;
77384;SDS011;66443;49.122;8.346;2023-10-08T06:35:13;4.40;;;3.73;;
77384;SDS011;66443;49.122;8.346;2023-10-08T06:37:45;8.53;;;4.87;;
77384;SDS011;66443;49.122;8.346;2023-10-08T06:40:11;7.57;;;4.33;;
77384;SDS011;66443;49.122;8.346;2023-10-08T06:42:56;7.37;;;5.10;;
77384;SDS011;66443;49.122;8.346;2023-10-08T06:45:22;9.27;;;5.80;;
77384;SDS011;66443;49.122;8.346;2023-10-08T06:47:47;7.07;;;4.87;;
77384;SDS011;66443;49.122;8.346;2023-10-08T06:50:13;7.43;;;5.17;;
77384;SDS011;66443;49.122;8.346;2023-10-08T06:52:40;5.77;;;4.07;;
77384;SDS011;66443;49.122;8.346;2023-10-08T06:55:08;6.13;;;4.73;;
77384;SDS011;66443;49.122;8.346;2023-10-08T06:57:36;6.03;;;4.27;;
77384;SDS011;66443;49.122;8.346;2023-10-08T07:00:03;5.73;;;3.80;;
77384;SDS011;66443;49.122;8.346;2023-10-08T07:02:35;4.37;;;3.77;;
77384;SDS011;66443;49.122;8.346;2023-10-08T07:05:01;5.23;;;3.77;;
77384;SDS011;66443;49.122;8.346;2023-10-08T07:07:34;6.90;;;3.80;;
77384;SDS011;66443;49.122;8.346;2023-10-08T07:10:04;7.20;;;4.10;;
77384;SDS011;66443;49.122;8.346;2023-10-08T07:12:30;3.50;;;3.20;;
77384;SDS011;66443;49.122;8.346;2023-10-08T07:14:59;9.87;;;4.77;;
77384;SDS011;66443;49.122;8.346;2023-10-08T07:17:26;6.17;;;4.10;;
77384;SDS011;66443;49.122;8.346;2023-10-08T07:19:53;7.37;;;4.67;;
77384;SDS011;66443;49.122;8.346;2023-10-08T07:22:18;5.83;;;4.40;;
77384;SDS011;66443;49.122;8.346;2023-10-08T07:24:46;5.60;;;4.00;;
77384;SDS011;66443;49.122;8.346;2023-10-08T07:27:15;6.00;;;3.80;;
77384;SDS011;66443;49.122;8.346;2023-10-08T07:29:40;6.43;;;3.57;;
77384;SDS011;66443;49.122;8.346;2023-10-08T07:32:06;4.73;;;3.50;;
77384;SDS011;66443;49.122;8.346;2023-10-08T07:34:37;5.73;;;3.00;;
77384;SDS011;66443;49.122;8.346;2023-10-08T07:37:03;7.47;;;3.50;;
77384;SDS011;66443;49.122;8.346;2023-10-08T07:39:30;5.00;;;3.80;;
77384;SDS011;66443;49.122;8.346;2023-10-08T07:41:56;9.30;;;3.53;;
77384;SDS011;66443;49.122;8.346;2023-10-08T07:44:21;5.97;;;3.67;;
77384;SDS011;66443;49.122;8.346;2023-10-08T07:46:50;5.43;;;3.57;;
77384;SDS011;66443;49.122;8.346;2023-10-08T07:49:16;4.23;;;2.83;;
77384;SDS011;66443;49.122;8.346;2023-10-08T07:51:42;6.97;;;3.87;;
77384;SDS011;66443;49.122;8.346;2023-10-08T07:54:15;6.03;;;3.17;;
77384;SDS011;66443;49.122;8.346;2023-10-08T07:56:41;4.07;;;3.00;;
77384;SDS011;66443;49.122;8.346;2023-10-08T07:59:07;3.90;;;3.20;;
77384;SDS011;66443;49.122;8.346;2023-10-08T08:01:34;4.67;;;3.23;;
77384;SDS011;66443;49.122;8.346;2023-10-08T08:03:59;3.50;;;3.03;;
77384;SDS011;66443;49.122;8.346;2023-10-08T08:06:24;6.97;;;3.10;;
77384;SDS011;66443;49.122;8.346;2023-10-08T08:08:50;4.93;;;3.33;;
77384;SDS011;66443;49.122;8.346;2023-10-08T08:11:16;4.40;;;2.93;;
77384;SDS011;66443;49.122;8.346;2023-10-08T08:13:44;4.90;;;3.47;;
77384;SDS011;66443;49.122;8.346;2023-10-08T08:16:10;5.53;;;3.07;;
77384;SDS011;66443;49.122;8.346;2023-10-08T08:18:42;4.57;;;2.90;;
77384;SDS011;66443;49.122;8.346;2023-10-08T08:21:11;5.13;;;3.87;;
77384;SDS011;66443;49.122;8.346;2023-10-08T08:23:40;5.43;;;3.30;;
77384;SDS011;66443;49.122;8.346;2023-10-08T08:26:05;4.67;;;2.83;;
77384;SDS011;66443;49.122;8.346;2023-10-08T08:28:50;4.80;;;3.17;;
77384;SDS011;66443;49.122;8.346;2023-10-08T08:31:16;5.23;;;3.03;;
77384;SDS011;66443;49.122;8.346;2023-10-08T08:33:44;4.77;;;2.60;;
77384;SDS011;66443;49.122;8.346;2023-10-08T08:36:18;4.00;;;2.83;;
77384;SDS011;66443;49.122;8.346;2023-10-08T08:38:43;8.63;;;3.10;;
77384;SDS011;66443;49.122;8.346;2023-10-08T08:41:08;7.23;;;3.00;;
77384;SDS011;66443;49.122;8.346;2023-10-08T08:43:37;4.13;;;2.33;;
77384;SDS011;66443;49.122;8.346;2023-10-08T08:46:08;7.33;;;3.13;;
77384;SDS011;66443;49.122;8.346;2023-10-08T08:48:37;3.27;;;2.87;;
77384;SDS011;66443;49.122;8.346;2023-10-08T08:51:04;5.87;;;3.63;;
77384;SDS011;66443;49.122;8.346;2023-10-08T08:53:31;10.90;;;3.50;;
77384;SDS011;66443;49.122;8.346;2023-10-08T08:55:57;5.63;;;3.17;;
77384;SDS011;66443;49.122;8.346;2023-10-08T08:58:23;3.97;;;2.83;;
77384;SDS011;66443;49.122;8.346;2023-10-08T09:00:50;6.43;;;3.70;;
77384;SDS011;66443;49.122;8.346;2023-10-08T09:03:17;5.83;;;3.40;;
77384;SDS011;66443;49.122;8.346;2023-10-08T09:05:44;6.23;;;3.27;;
77384;SDS011;66443;49.122;8.346;2023-10-08T09:08:14;5.77;;;3.00;;
77384;SDS011;66443;49.122;8.346;2023-10-08T09:10:43;7.23;;;3.03;;
77384;SDS011;66443;49.122;8.346;2023-10-08T09:13:19;6.70;;;3.30;;
77384;SDS011;66443;49.122;8.346;2023-10-08T09:15:46;6.43;;;3.37;;
77384;SDS011;66443;49.122;8.346;2023-10-08T09:18:11;4.43;;;3.20;;
77384;SDS011;66443;49.122;8.346;2023-10-08T09:20:39;9.30;;;3.63;;
77384;SDS011;66443;49.122;8.346;2023-10-08T09:23:14;6.60;;;3.37;;
77384;SDS011;66443;49.122;8.346;2023-10-08T09:25:42;12.60;;;3.63;;
77384;SDS011;66443;49.122;8.346;2023-10-08T09:28:08;6.87;;;3.20;;
77384;SDS011;66443;49.122;8.346;2023-10-08T09:30:34;7.87;;;3.10;;
77384;SDS011;66443;49.122;8.346;2023-10-08T09:33:06;4.07;;;3.10;;
77384;SDS011;66443;49.122;8.346;2023-10-08T09:35:31;4.80;;;3.43;;
77384;SDS011;66443;49.122;8.346;2023-10-08T09:37:57;8.80;;;2.97;;
77384;SDS011;66443;49.122;8.346;2023-10-08T09:40:22;7.37;;;2.77;;
77384;SDS011;66443;49.122;8.346;2023-10-08T09:42:49;7.60;;;3.43;;
77384;SDS011;66443;49.122;8.346;2023-10-08T09:45:15;3.93;;;2.77;;
77384;SDS011;66443;49.122;8.346;2023-10-08T09:47:42;3.77;;;3.03;;
77384;SDS011;66443;49.122;8.346;2023-10-08T09:50:08;4.97;;;3.20;;
77384;SDS011;66443;49.122;8.346;2023-10-08T09:52:39;5.13;;;4.17;;
77384;SDS011;66443;49.122;8.346;2023-10-08T09:55:09;6.87;;;3.50;;
77384;SDS011;66443;49.122;8.346;2023-10-08T09:57:37;4.80;;;3.97;;
77384;SDS011;66443;49.122;8.346;2023-10-08T10:00:04;4.80;;;3.40;;
77384;SDS011;66443;49.122;8.346;2023-10-08T10:02:31;4.70;;;3.57;;
77384;SDS011;66443;49.122;8.346;2023-10-08T10:04:57;12.10;;;3.67;;
77384;SDS011;66443;49.122;8.346;2023-10-08T10:07:22;5.93;;;3.67;;
77384;SDS011;66443;49.122;8.346;2023-10-08T10:09:50;7.83;;;3.47;;
77384;SDS011;66443;49.122;8.346;2023-10-08T10:12:20;8.73;;;3.70;;
77384;SDS011;66443;49.122;8.346;2023-10-08T10:14:51;5.67;;;3.63;;
77384;SDS011;66443;49.122;8.346;2023-10-08T10:17:25;4.80;;;3.07;;
77384;SDS011;66443;49.122;8.346;2023-10-08T10:20:00;5.87;;;3.27;;
77384;SDS011;66443;49.122;8.346;2023-10-08T10:22:33;5.05;;;3.47;;
77384;SDS011;66443;49.122;8.346;2023-10-08T10:24:59;6.32;;;3.55;;
77384;SDS011;66443;49.122;8.346;2023-10-08T10:27:28;5.38;;;3.47;;
77384;SDS011;66443;49.122;8.346;2023-10-08T10:30:01;6.60;;;4.00;;
77384;SDS011;66443;49.122;8.346;2023-10-08T10:32:28;6.57;;;3.43;;
77384;SDS011;66443;49.122;8.346;2023-10-08T10:34:53;7.93;;;3.47;;
77384;SDS011;66443;49.122;8.346;2023-10-08T10:37:19;8.87;;;3.90;;
77384;SDS011;66443;49.122;8.346;2023-10-08T10:39:54;7.72;;;4.00;;
77384;SDS011;66443;49.122;8.346;2023-10-08T10:42:25;5.60;;;3.22;;
77384;SDS011;66443;49.122;8.346;2023-10-08T10:44:53;3.70;;;3.30;;
77384;SDS011;66443;49.122;8.346;2023-10-08T10:47:20;5.93;;;3.35;;
77384;SDS011;66443;49.122;8.346;2023-10-08T10:49:50;6.18;;;4.50;;
77384;SDS011;66443;49.122;8.346;2023-10-08T10:52:28;6.65;;;3.92;;
77384;SDS011;66443;49.122;8.346;2023-10-08T10:55:06;4.63;;;3.60;;
77384;SDS011;66443;49.122;8.346;2023-10-08T10:57:52;6.18;;;3.70;;
77384;SDS011;66443;49.122;8.346;2023-10-08T11:00:24;8.68;;;3.90;;
77384;SDS011;66443;49.122;8.346;2023-10-08T11:02:59;7.25;;;3.47;;
77384;SDS011;66443;49.122;8.346;2023-10-08T11:05:34;5.65;;;3.33;;
77384;SDS011;66443;49.122;8.346;2023-10-08T11:08:02;6.82;;;3.90;;
77384;SDS011;66443;49.122;8.346;2023-10-08T11:10:31;4.72;;;3.40;;
77384;SDS011;66443;49.122;8.346;2023-10-08T11:12:57;5.00;;;3.47;;
77384;SDS011;66443;49.122;8.346;2023-10-08T11:15:24;4.53;;;3.75;;
77384;SDS011;66443;49.122;8.346;2023-10-08T11:17:52;7.10;;;3.72;;
77384;SDS011;66443;49.122;8.346;2023-10-08T11:20:26;3.35;;;3.05;;
77384;SDS011;66443;49.122;8.346;2023-10-08T11:22:52;4.80;;;3.63;;
77384;SDS011;66443;49.122;8.346;2023-10-08T11:25:25;10.00;;;3.40;;
77384;SDS011;66443;49.122;8.346;2023-10-08T11:27:55;6.05;;;3.58;;
77384;SDS011;66443;49.122;8.346;2023-10-08T11:30:26;4.10;;;3.70;;
77384;SDS011;66443;49.122;8.346;2023-10-08T11:32:55;4.72;;;4.00;;
77384;SDS011;66443;49.122;8.346;2023-10-08T11:35:21;5.85;;;3.45;;
77384;SDS011;66443;49.122;8.346;2023-10-08T11:37:47;5.07;;;3.80;;
77384;SDS011;66443;49.122;8.346;2023-10-08T11:40:25;6.47;;;4.10;;
77384;SDS011;66443;49.122;8.346;2023-10-08T11:42:56;4.35;;;3.13;;
77384;SDS011;66443;49.122;8.346;2023-10-08T11:45:24;5.70;;;3.58;;
77384;SDS011;66443;49.122;8.346;2023-10-08T11:47:51;4.80;;;3.40;;
77384;SDS011;66443;49.122;8.346;2023-10-08T11:50:36;5.07;;;3.75;;
77384;SDS011;66443;49.122;8.346;2023-10-08T11:53:03;4.63;;;3.50;;
77384;SDS011;66443;49.122;8.346;2023-10-08T11:55:32;7.63;;;3.42;;
77384;SDS011;66443;49.122;8.346;2023-10-08T11:58:07;4.70;;;4.15;;
77384;SDS011;66443;49.122;8.346;2023-10-08T12:00:39;5.15;;;3.58;;
77384;SDS011;66443;49.122;8.346;2023-10-08T12:03:11;5.70;;;4.30;;
77384;SDS011;66443;49.122;8.346;2023-10-08T12:05:37;5.60;;;3.92;;
77384;SDS011;66443;49.122;8.346;2023-10-08T12:08:04;6.38;;;4.80;;
77384;SDS011;66443;49.122;8.346;2023-10-08T12:10:33;4.20;;;3.75;;
77384;SDS011;66443;49.122;8.346;2023-10-08T12:12:59;4.47;;;3.58;;
77384;SDS011;66443;49.122;8.346;2023-10-08T12:15:25;5.57;;;3.83;;
77384;SDS011;66443;49.122;8.346;2023-10-08T12:17:59;6.07;;;4.45;;
77384;SDS011;66443;49.122;8.346;2023-10-08T12:20:34;4.65;;;3.55;;
77384;SDS011;66443;49.122;8.346;2023-10-08T12:23:00;6.28;;;3.88;;
77384;SDS011;66443;49.122;8.346;2023-10-08T12:25:25;5.80;;;4.33;;
77384;SDS011;66443;49.122;8.346;2023-10-08T12:27:50;4.13;;;3.42;;
77384;SDS011;66443;49.122;8.346;2023-10-08T12:30:15;6.37;;;3.70;;
77384;SDS011;66443;49.122;8.346;2023-10-08T12:32:40;3.43;;;3.13;;
77384;SDS011;66443;49.122;8.346;2023-10-08T12:35:08;5.82;;;3.85;;
77384;SDS011;66443;49.122;8.346;2023-10-08T12:37:38;6.10;;;3.80;;
77384;SDS011;66443;49.122;8.346;2023-10-08T12:40:04;5.82;;;4.13;;
77384;SDS011;66443;49.122;8.346;2023-10-08T12:42:37;4.85;;;4.00;;
77384;SDS011;66443;49.122;8.346;2023-10-08T12:45:04;4.80;;;3.60;;
77384;SDS011;66443;49.122;8.346;2023-10-08T12:47:36;5.90;;;3.70;;
77384;SDS011;66443;49.122;8.346;2023-10-08T12:50:02;8.50;;;4.13;;
77384;SDS011;66443;49.122;8.346;2023-10-08T12:52:32;3.63;;;3.33;;
77384;SDS011;66443;49.122;8.346;2023-10-08T12:54:59;6.57;;;3.47;;
77384;SDS011;66443;49.122;8.346;2023-10-08T12:57:28;8.02;;;4.60;;
77384;SDS011;66443;49.122;8.346;2023-10-08T12:59:57;5.40;;;3.95;;
77384;SDS011;66443;49.122;8.346;2023-10-08T13:02:24;6.05;;;4.00;;
77384;SDS011;66443;49.122;8.346;2023-10-08T13:04:53;4.07;;;3.65;;
77384;SDS011;66443;49.122;8.346;2023-10-08T13:07:19;7.60;;;4.35;;
77384;SDS011;66443;49.122;8.346;2023-10-08T13:09:46;6.75;;;3.50;;
77384;SDS011;66443;49.122;8.346;2023-10-08T13:12:12;7.30;;;3.45;;
77384;SDS011;66443;49.122;8.346;2023-10-08T13:14:37;5.68;;;4.00;;
77384;SDS011;66443;49.122;8.346;2023-10-08T13:17:02;4.07;;;3.67;;
77384;SDS011;66443;49.122;8.346;2023-10-08T13:19:28;6.75;;;3.95;;
77384;SDS011;66443;49.122;8.346;2023-10-08T13:21:55;4.90;;;3.70;;
77384;SDS011;66443;49.122;8.346;2023-10-08T13:24:20;3.87;;;3.47;;
77384;SDS011;66443;49.122;8.346;2023-10-08T13:26:46;5.18;;;3.38;;
77384;SDS011;66443;49.122;8.346;2023-10-08T13:29:13;4.43;;;3.28;;
77384;SDS011;66443;49.122;8.346;2023-10-08T13:31:39;4.68;;;3.72;;
77384;SDS011;66443;49.122;8.346;2023-10-08T13:34:04;7.03;;;3.88;;
77384;SDS011;66443;49.122;8.346;2023-10-08T13:36:33;6.78;;;4.35;;
77384;SDS011;66443;49.122;8.346;2023-10-08T13:38:58;4.40;;;4.00;;
77384;SDS011;66443;49.122;8.346;2023-10-08T13:41:24;4.33;;;3.80;;
77384;SDS011;66443;49.122;8.346;2023-10-08T13:43:54;5.55;;;3.85;;
77384;SDS011;66443;49.122;8.346;2023-10-08T13:46:30;4.25;;;3.85;;
77384;SDS011;66443;49.122;8.346;2023-10-08T13:48:56;5.38;;;3.53;;
77384;SDS011;66443;49.122;8.346;2023-10-08T13:51:22;5.32;;;3.65;;
77384;SDS011;66443;49.122;8.346;2023-10-08T13:53:51;7.60;;;3.40;;
77384;SDS011;66443;49.122;8.346;2023-10-08T13:56:24;6.00;;;3.85;;
77384;SDS011;66443;49.122;8.346;2023-10-08T13:58:51;7.30;;;3.22;;
77384;SDS011;66443;49.122;8.346;2023-10-08T14:01:21;5.22;;;3.17;;
77384;SDS011;66443;49.122;8.346;2023-10-08T14:03:49;5.40;;;3.20;;
77384;SDS011;66443;49.122;8.346;2023-10-08T14:06:17;5.60;;;3.17;;
77384;SDS011;66443;49.122;8.346;2023-10-08T14:08:42;7.20;;;3.47;;
77384;SDS011;66443;49.122;8.346;2023-10-08T14:11:13;4.70;;;3.55;;
77384;SDS011;66443;49.122;8.346;2023-10-08T14:13:39;5.20;;;3.50;;
77384;SDS011;66443;49.122;8.346;2023-10-08T14:16:07;7.00;;;3.90;;
77384;SDS011;66443;49.122;8.346;2023-10-08T14:18:33;8.45;;;3.60;;
77384;SDS011;66443;49.122;8.346;2023-10-08T14:21:08;4.90;;;3.40;;
77384;SDS011;66443;49.122;8.346;2023-10-08T14:23:38;5.65;;;3.45;;
77384;SDS011;66443;49.122;8.346;2023-10-08T14:26:12;7.38;;;3.47;;
77384;SDS011;66443;49.122;8.346;2023-10-08T14:28:40;14.30;;;3.70;;
77384;SDS011;66443;49.122;8.346;2023-10-08T14:31:07;5.88;;;3.42;;
77384;SDS011;66443;49.122;8.346;2023-10-08T14:33:32;5.20;;;3.60;;
77384;SDS011;66443;49.122;8.346;2023-10-08T14:36:06;7.47;;;3.67;;
77384;SDS011;66443;49.122;8.346;2023-10-08T14:38:50;7.60;;;3.85;;
77384;SDS011;66443;49.122;8.346;2023-10-08T14:41:34;6.78;;;3.45;;
77384;SDS011;66443;49.122;8.346;2023-10-08T14:44:18;8.80;;;3.95;;
77384;SDS011;66443;49.122;8.346;2023-10-08T14:46:43;5.30;;;3.50;;
77384;SDS011;66443;49.122;8.346;2023-10-08T14:49:09;4.72;;;3.55;;
77384;SDS011;66443;49.122;8.346;2023-10-08T14:51:35;3.83;;;3.42;;
77384;SDS011;66443;49.122;8.346;2023-10-08T14:54:01;9.50;;;3.45;;
77384;SDS011;66443;49.122;8.346;2023-10-08T14:56:26;6.30;;;3.60;;
77384;SDS011;66443;49.122;8.346;2023-10-08T14:58:55;5.28;;;3.17;;
77384;SDS011;66443;49.122;8.346;2023-10-08T15:01:20;6.63;;;3.85;;
77384;SDS011;66443;49.122;8.346;2023-10-08T15:03:48;8.90;;;3.97;;